sensor_id;sensor_type;location;lat;lon;timestamp;temperature;humidity
6956;DHT22;50345;51.136;16.886;2023-04-06T00:00:48;0.20;99.90
6956;DHT22;50345;51.136;16.886;2023-04-06T00:03:14;0.30;99.90
6956;DHT22;50345;51.136;16.886;2023-04-06T00:05:40;0.20;99.90
6956;DHT22;50345;51.136;16.886;2023-04-06T00:08:06;0.20;99.90
6956;DHT22;50345;51.136;16.886;2023-04-06T00:10:31;0.10;99.90
6956;DHT22;50345;51.136;16.886;2023-04-06T00:12:58;0.10;99.90
6956;DHT22;50345;51.136;16.886;2023-04-06T00:15:24;0.10;99.90
6956;DHT22;50345;51.136;16.886;2023-04-06T00:17:50;0.10;99.90
6956;DHT22;50345;51.136;16.886;2023-04-06T00:20:16;0.10;99.90
6956;DHT22;50345;51.136;16.886;2023-04-06T00:22:42;0.00;99.90
6956;DHT22;50345;51.136;16.886;2023-04-06T00:25:08;0.00;99.90
6956;DHT22;50345;51.136;16.886;2023-04-06T00:27:35;0.00;99.90
6956;DHT22;50345;51.136;16.886;2023-04-06T00:30:02;-0.10;99.90
6956;DHT22;50345;51.136;16.886;2023-04-06T00:32:28;-0.10;99.90
6956;DHT22;50345;51.136;16.886;2023-04-06T00:34:54;-0.10;99.90
6956;DHT22;50345;51.136;16.886;2023-04-06T00:37:19;-0.10;99.90
6956;DHT22;50345;51.136;16.886;2023-04-06T00:39:45;-0.10;99.90
6956;DHT22;50345;51.136;16.886;2023-04-06T00:42:12;-0.10;99.90
6956;DHT22;50345;51.136;16.886;2023-04-06T00:44:40;-0.20;99.90
6956;DHT22;50345;51.136;16.886;2023-04-06T00:47:05;-0.20;99.90
6956;DHT22;50345;51.136;16.886;2023-04-06T00:49:32;-0.20;99.90
6956;DHT22;50345;51.136;16.886;2023-04-06T00:51:58;-0.20;99.90
6956;DHT22;50345;51.136;16.886;2023-04-06T00:54:24;-0.20;99.90
6956;DHT22;50345;51.136;16.886;2023-04-06T00:56:50;-0.30;99.90
6956;DHT22;50345;51.136;16.886;2023-04-06T00:59:16;-0.30;99.90
6956;DHT22;50345;51.136;16.886;2023-04-06T01:01:41;-0.30;99.90
6956;DHT22;50345;51.136;16.886;2023-04-06T01:04:07;-0.40;99.90
6956;DHT22;50345;51.136;16.886;2023-04-06T01:06:33;-0.40;99.90
6956;DHT22;50345;51.136;16.886;2023-04-06T01:08:58;-0.40;99.90
6956;DHT22;50345;51.136;16.886;2023-04-06T01:11:24;-0.40;99.90
6956;DHT22;50345;51.136;16.886;2023-04-06T01:13:50;-0.40;99.90
6956;DHT22;50345;51.136;16.886;2023-04-06T01:16:15;-0.40;99.90
6956;DHT22;50345;51.136;16.886;2023-04-06T01:18:41;-0.50;99.90
6956;DHT22;50345;51.136;16.886;2023-04-06T01:21:08;-0.50;99.90
6956;DHT22;50345;51.136;16.886;2023-04-06T01:23:35;-0.50;99.90
6956;DHT22;50345;51.136;16.886;2023-04-06T01:26:01;-0.50;99.90
6956;DHT22;50345;51.136;16.886;2023-04-06T01:28:26;-0.50;99.90
6956;DHT22;50345;51.136;16.886;2023-04-06T01:30:52;-0.50;99.90
6956;DHT22;50345;51.136;16.886;2023-04-06T01:33:18;-0.60;99.90
6956;DHT22;50345;51.136;16.886;2023-04-06T01:35:43;-0.50;99.90
6956;DHT22;50345;51.136;16.886;2023-04-06T01:38:09;-0.60;99.90
6956;DHT22;50345;51.136;16.886;2023-04-06T01:40:35;-0.60;99.90
6956;DHT22;50345;51.136;16.886;2023-04-06T01:43:00;-0.60;99.90
6956;DHT22;50345;51.136;16.886;2023-04-06T01:45:26;-0.60;99.90
6956;DHT22;50345;51.136;16.886;2023-04-06T01:47:51;-0.60;99.90
6956;DHT22;50345;51.136;16.886;2023-04-06T01:50:17;-0.60;99.90
6956;DHT22;50345;51.136;16.886;2023-04-06T01:52:43;-0.60;99.90
6956;DHT22;50345;51.136;16.886;2023-04-06T01:55:08;-0.70;99.90
6956;DHT22;50345;51.136;16.886;2023-04-06T01:57:34;-0.70;99.90
6956;DHT22;50345;51.136;16.886;2023-04-06T02:00:00;-0.70;99.90
6956;DHT22;50345;51.136;16.886;2023-04-06T02:02:25;-0.70;99.90
6956;DHT22;50345;51.136;16.886;2023-04-06T02:04:51;-0.80;99.90
6956;DHT22;50345;51.136;16.886;2023-04-06T02:07:17;-0.80;99.90
6956;DHT22;50345;51.136;16.886;2023-04-06T02:09:42;-0.80;99.90
6956;DHT22;50345;51.136;16.886;2023-04-06T02:12:08;-0.80;99.90
6956;DHT22;50345;51.136;16.886;2023-04-06T02:14:33;-0.80;99.90
6956;DHT22;50345;51.136;16.886;2023-04-06T02:16:59;-0.80;99.90
6956;DHT22;50345;51.136;16.886;2023-04-06T02:19:25;-0.80;99.90
6956;DHT22;50345;51.136;16.886;2023-04-06T02:21:51;-0.90;99.90
6956;DHT22;50345;51.136;16.886;2023-04-06T02:24:17;-0.80;99.90
6956;DHT22;50345;51.136;16.886;2023-04-06T02:26:42;-0.90;99.90
6956;DHT22;50345;51.136;16.886;2023-04-06T02:29:08;-0.90;99.90
6956;DHT22;50345;51.136;16.886;2023-04-06T02:31:33;-0.90;99.90
6956;DHT22;50345;51.136;16.886;2023-04-06T02:33:59;-1.00;99.90
6956;DHT22;50345;51.136;16.886;2023-04-06T02:36:25;-1.00;99.90
6956;DHT22;50345;51.136;16.886;2023-04-06T02:38:51;-1.00;99.90
6956;DHT22;50345;51.136;16.886;2023-04-06T02:41:17;-1.00;99.90
6956;DHT22;50345;51.136;16.886;2023-04-06T02:43:42;-1.00;99.90
6956;DHT22;50345;51.136;16.886;2023-04-06T02:46:08;-1.00;99.90
6956;DHT22;50345;51.136;16.886;2023-04-06T02:48:33;-1.10;99.90
6956;DHT22;50345;51.136;16.886;2023-04-06T02:51:01;-1.00;99.90
6956;DHT22;50345;51.136;16.886;2023-04-06T02:53:27;-1.10;99.90
6956;DHT22;50345;51.136;16.886;2023-04-06T02:55:53;-1.10;99.90
6956;DHT22;50345;51.136;16.886;2023-04-06T02:58:18;-1.10;99.90
6956;DHT22;50345;51.136;16.886;2023-04-06T03:00:44;-1.10;99.90
6956;DHT22;50345;51.136;16.886;2023-04-06T03:03:10;-1.10;99.90
6956;DHT22;50345;51.136;16.886;2023-04-06T03:05:37;-1.20;99.90
6956;DHT22;50345;51.136;16.886;2023-04-06T03:08:03;-1.20;99.90
6956;DHT22;50345;51.136;16.886;2023-04-06T03:10:28;-1.20;99.90
6956;DHT22;50345;51.136;16.886;2023-04-06T03:12:54;-1.20;99.90
6956;DHT22;50345;51.136;16.886;2023-04-06T03:15:19;-1.20;99.90
6956;DHT22;50345;51.136;16.886;2023-04-06T03:17:45;-1.20;99.90
6956;DHT22;50345;51.136;16.886;2023-04-06T03:20:11;-1.20;99.90
6956;DHT22;50345;51.136;16.886;2023-04-06T03:22:37;-1.20;99.90
6956;DHT22;50345;51.136;16.886;2023-04-06T03:25:03;-1.20;99.90
6956;DHT22;50345;51.136;16.886;2023-04-06T03:27:28;-1.20;99.90
6956;DHT22;50345;51.136;16.886;2023-04-06T03:29:54;-1.20;99.90
6956;DHT22;50345;51.136;16.886;2023-04-06T03:32:20;-1.20;99.90
6956;DHT22;50345;51.136;16.886;2023-04-06T03:34:45;-1.20;99.90
6956;DHT22;50345;51.136;16.886;2023-04-06T03:37:11;-1.20;99.90
6956;DHT22;50345;51.136;16.886;2023-04-06T03:39:37;-1.20;99.90
6956;DHT22;50345;51.136;16.886;2023-04-06T03:42:02;-1.20;99.90
6956;DHT22;50345;51.136;16.886;2023-04-06T03:44:28;-1.20;99.90
6956;DHT22;50345;51.136;16.886;2023-04-06T03:46:53;-1.20;99.90
6956;DHT22;50345;51.136;16.886;2023-04-06T03:49:19;-1.20;99.90
6956;DHT22;50345;51.136;16.886;2023-04-06T03:51:45;-1.20;99.90
6956;DHT22;50345;51.136;16.886;2023-04-06T03:54:11;-1.20;99.90
6956;DHT22;50345;51.136;16.886;2023-04-06T03:56:36;-1.30;99.90
6956;DHT22;50345;51.136;16.886;2023-04-06T03:59:02;-1.30;99.90
6956;DHT22;50345;51.136;16.886;2023-04-06T04:01:27;-1.30;99.90
6956;DHT22;50345;51.136;16.886;2023-04-06T04:03:53;-1.30;99.90
6956;DHT22;50345;51.136;16.886;2023-04-06T04:06:19;-1.30;99.90
6956;DHT22;50345;51.136;16.886;2023-04-06T04:08:44;-1.40;99.90
6956;DHT22;50345;51.136;16.886;2023-04-06T04:11:10;-1.40;99.90
6956;DHT22;50345;51.136;16.886;2023-04-06T04:13:36;-1.40;99.90
6956;DHT22;50345;51.136;16.886;2023-04-06T04:16:01;-1.40;99.90
6956;DHT22;50345;51.136;16.886;2023-04-06T04:18:27;-1.40;99.90
6956;DHT22;50345;51.136;16.886;2023-04-06T04:20:53;-1.50;99.90
6956;DHT22;50345;51.136;16.886;2023-04-06T04:23:18;-1.50;99.90
6956;DHT22;50345;51.136;16.886;2023-04-06T04:25:44;-1.50;99.90
6956;DHT22;50345;51.136;16.886;2023-04-06T04:28:10;-1.50;99.90
6956;DHT22;50345;51.136;16.886;2023-04-06T04:30:35;-1.40;99.90
6956;DHT22;50345;51.136;16.886;2023-04-06T04:33:01;-1.50;99.90
6956;DHT22;50345;51.136;16.886;2023-04-06T04:35:26;-1.40;99.90
6956;DHT22;50345;51.136;16.886;2023-04-06T04:37:52;-1.40;99.90
6956;DHT22;50345;51.136;16.886;2023-04-06T04:40:18;-1.40;99.90
6956;DHT22;50345;51.136;16.886;2023-04-06T04:42:44;-1.40;99.90
6956;DHT22;50345;51.136;16.886;2023-04-06T04:45:10;-1.40;99.90
6956;DHT22;50345;51.136;16.886;2023-04-06T04:47:36;-1.30;99.90
6956;DHT22;50345;51.136;16.886;2023-04-06T04:50:01;-1.30;99.90
6956;DHT22;50345;51.136;16.886;2023-04-06T04:52:27;-1.30;99.90
6956;DHT22;50345;51.136;16.886;2023-04-06T04:54:53;-1.30;99.90
6956;DHT22;50345;51.136;16.886;2023-04-06T04:57:18;-1.30;99.90
6956;DHT22;50345;51.136;16.886;2023-04-06T04:59:44;-1.20;99.90
6956;DHT22;50345;51.136;16.886;2023-04-06T05:02:09;-1.20;99.90
6956;DHT22;50345;51.136;16.886;2023-04-06T05:04:35;-1.20;99.90
6956;DHT22;50345;51.136;16.886;2023-04-06T05:07:05;-1.10;99.90
6956;DHT22;50345;51.136;16.886;2023-04-06T05:09:31;-1.00;99.90
6956;DHT22;50345;51.136;16.886;2023-04-06T05:11:58;-1.00;99.90
6956;DHT22;50345;51.136;16.886;2023-04-06T05:14:24;-0.90;99.90
6956;DHT22;50345;51.136;16.886;2023-04-06T05:16:50;-0.80;99.90
6956;DHT22;50345;51.136;16.886;2023-04-06T05:19:15;-0.80;99.90
6956;DHT22;50345;51.136;16.886;2023-04-06T05:21:41;-0.70;99.90
6956;DHT22;50345;51.136;16.886;2023-04-06T05:24:07;-0.60;99.90
6956;DHT22;50345;51.136;16.886;2023-04-06T05:26:32;-0.60;99.90
6956;DHT22;50345;51.136;16.886;2023-04-06T05:28:58;-0.50;99.90
6956;DHT22;50345;51.136;16.886;2023-04-06T05:31:24;-0.40;99.90
6956;DHT22;50345;51.136;16.886;2023-04-06T05:33:49;-0.30;99.90
6956;DHT22;50345;51.136;16.886;2023-04-06T05:36:16;-0.20;99.90
6956;DHT22;50345;51.136;16.886;2023-04-06T05:38:41;-0.20;99.90
6956;DHT22;50345;51.136;16.886;2023-04-06T05:41:07;-0.10;99.90
6956;DHT22;50345;51.136;16.886;2023-04-06T05:43:32;0.00;99.90
6956;DHT22;50345;51.136;16.886;2023-04-06T05:45:58;0.10;99.90
6956;DHT22;50345;51.136;16.886;2023-04-06T05:48:24;0.10;99.90
6956;DHT22;50345;51.136;16.886;2023-04-06T05:50:50;0.20;99.90
6956;DHT22;50345;51.136;16.886;2023-04-06T05:53:16;0.30;99.90
6956;DHT22;50345;51.136;16.886;2023-04-06T05:55:42;0.40;99.90
6956;DHT22;50345;51.136;16.886;2023-04-06T05:58:07;0.50;99.90
6956;DHT22;50345;51.136;16.886;2023-04-06T06:00:33;0.60;99.90
6956;DHT22;50345;51.136;16.886;2023-04-06T06:02:59;0.70;99.90
6956;DHT22;50345;51.136;16.886;2023-04-06T06:05:25;0.80;99.90
6956;DHT22;50345;51.136;16.886;2023-04-06T06:07:51;0.90;99.90
6956;DHT22;50345;51.136;16.886;2023-04-06T06:10:17;1.00;99.90
6956;DHT22;50345;51.136;16.886;2023-04-06T06:12:42;1.00;99.90
6956;DHT22;50345;51.136;16.886;2023-04-06T06:15:08;1.10;99.90
6956;DHT22;50345;51.136;16.886;2023-04-06T06:17:34;1.20;99.90
6956;DHT22;50345;51.136;16.886;2023-04-06T06:20:00;1.30;99.90
6956;DHT22;50345;51.136;16.886;2023-04-06T06:22:25;1.40;99.90
6956;DHT22;50345;51.136;16.886;2023-04-06T06:24:51;1.50;99.90
6956;DHT22;50345;51.136;16.886;2023-04-06T06:27:16;1.60;99.90
6956;DHT22;50345;51.136;16.886;2023-04-06T06:29:42;1.70;99.90
6956;DHT22;50345;51.136;16.886;2023-04-06T06:32:08;1.80;99.90
6956;DHT22;50345;51.136;16.886;2023-04-06T06:34:36;1.90;99.90
6956;DHT22;50345;51.136;16.886;2023-04-06T06:37:02;1.90;99.90
6956;DHT22;50345;51.136;16.886;2023-04-06T06:39:28;2.10;99.90
6956;DHT22;50345;51.136;16.886;2023-04-06T06:41:53;2.10;99.90
6956;DHT22;50345;51.136;16.886;2023-04-06T06:44:20;2.20;99.90
6956;DHT22;50345;51.136;16.886;2023-04-06T06:46:47;2.30;99.90
6956;DHT22;50345;51.136;16.886;2023-04-06T06:49:13;2.50;99.90
6956;DHT22;50345;51.136;16.886;2023-04-06T06:51:39;2.50;99.90
6956;DHT22;50345;51.136;16.886;2023-04-06T06:54:05;2.60;99.90
6956;DHT22;50345;51.136;16.886;2023-04-06T06:56:31;2.70;99.90
6956;DHT22;50345;51.136;16.886;2023-04-06T06:58:56;2.80;99.90
6956;DHT22;50345;51.136;16.886;2023-04-06T07:01:22;2.90;99.90
6956;DHT22;50345;51.136;16.886;2023-04-06T07:03:48;3.00;99.90
6956;DHT22;50345;51.136;16.886;2023-04-06T07:06:13;3.10;99.90
6956;DHT22;50345;51.136;16.886;2023-04-06T07:08:39;3.20;99.90
6956;DHT22;50345;51.136;16.886;2023-04-06T07:11:05;3.30;99.90
6956;DHT22;50345;51.136;16.886;2023-04-06T07:13:30;3.40;99.90
6956;DHT22;50345;51.136;16.886;2023-04-06T07:15:56;3.50;99.90
6956;DHT22;50345;51.136;16.886;2023-04-06T07:18:22;3.70;99.90
6956;DHT22;50345;51.136;16.886;2023-04-06T07:20:48;3.90;99.90
6956;DHT22;50345;51.136;16.886;2023-04-06T07:23:14;4.00;99.90
6956;DHT22;50345;51.136;16.886;2023-04-06T07:25:40;4.10;99.90
6956;DHT22;50345;51.136;16.886;2023-04-06T07:28:06;4.30;99.90
6956;DHT22;50345;51.136;16.886;2023-04-06T07:30:31;4.30;99.90
6956;DHT22;50345;51.136;16.886;2023-04-06T07:32:57;4.40;99.90
6956;DHT22;50345;51.136;16.886;2023-04-06T07:35:25;4.60;99.90
6956;DHT22;50345;51.136;16.886;2023-04-06T07:37:52;4.80;99.90
6956;DHT22;50345;51.136;16.886;2023-04-06T07:40:17;4.80;99.90
6956;DHT22;50345;51.136;16.886;2023-04-06T07:42:45;4.90;99.90
6956;DHT22;50345;51.136;16.886;2023-04-06T07:45:11;5.10;99.90
6956;DHT22;50345;51.136;16.886;2023-04-06T07:47:36;5.10;99.90
6956;DHT22;50345;51.136;16.886;2023-04-06T07:52:28;5.40;99.90
6956;DHT22;50345;51.136;16.886;2023-04-06T07:54:54;5.60;99.90
6956;DHT22;50345;51.136;16.886;2023-04-06T07:57:20;5.70;99.90
6956;DHT22;50345;51.136;16.886;2023-04-06T07:59:46;5.90;99.90
6956;DHT22;50345;51.136;16.886;2023-04-06T08:02:11;6.00;99.90
6956;DHT22;50345;51.136;16.886;2023-04-06T08:04:37;6.20;99.90
6956;DHT22;50345;51.136;16.886;2023-04-06T08:07:03;6.40;99.90
6956;DHT22;50345;51.136;16.886;2023-04-06T08:09:28;6.50;99.90
6956;DHT22;50345;51.136;16.886;2023-04-06T08:11:54;6.70;99.90
6956;DHT22;50345;51.136;16.886;2023-04-06T08:14:20;6.90;99.90
6956;DHT22;50345;51.136;16.886;2023-04-06T08:16:45;7.10;99.90
6956;DHT22;50345;51.136;16.886;2023-04-06T08:19:11;7.20;99.90
6956;DHT22;50345;51.136;16.886;2023-04-06T08:21:37;7.30;99.90
6956;DHT22;50345;51.136;16.886;2023-04-06T08:24:03;7.50;99.90
6956;DHT22;50345;51.136;16.886;2023-04-06T08:26:29;7.70;99.90
6956;DHT22;50345;51.136;16.886;2023-04-06T08:28:55;7.80;99.90
6956;DHT22;50345;51.136;16.886;2023-04-06T08:31:20;8.00;98.20
6956;DHT22;50345;51.136;16.886;2023-04-06T08:33:46;8.20;96.60
6956;DHT22;50345;51.136;16.886;2023-04-06T08:36:13;8.30;93.60
6956;DHT22;50345;51.136;16.886;2023-04-06T08:38:40;8.60;92.60
6956;DHT22;50345;51.136;16.886;2023-04-06T08:41:13;8.70;91.10
6956;DHT22;50345;51.136;16.886;2023-04-06T08:43:43;9.00;90.50
6956;DHT22;50345;51.136;16.886;2023-04-06T08:46:11;9.20;86.90
6956;DHT22;50345;51.136;16.886;2023-04-06T08:48:38;9.40;82.80
6956;DHT22;50345;51.136;16.886;2023-04-06T08:51:05;9.60;72.20
6956;DHT22;50345;51.136;16.886;2023-04-06T08:53:31;9.80;69.60
6956;DHT22;50345;51.136;16.886;2023-04-06T08:55:58;9.90;62.70
6956;DHT22;50345;51.136;16.886;2023-04-06T08:58:25;9.90;60.20
6956;DHT22;50345;51.136;16.886;2023-04-06T09:00:53;10.10;59.60
6956;DHT22;50345;51.136;16.886;2023-04-06T09:03:20;10.60;57.80
6956;DHT22;50345;51.136;16.886;2023-04-06T09:05:46;11.50;54.50
6956;DHT22;50345;51.136;16.886;2023-04-06T09:08:13;12.50;51.90
6956;DHT22;50345;51.136;16.886;2023-04-06T09:10:41;13.40;48.50
6956;DHT22;50345;51.136;16.886;2023-04-06T09:13:08;14.30;46.00
6956;DHT22;50345;51.136;16.886;2023-04-06T09:15:34;15.20;45.10
6956;DHT22;50345;51.136;16.886;2023-04-06T09:18:01;16.20;42.50
6956;DHT22;50345;51.136;16.886;2023-04-06T09:20:26;17.00;39.60
6956;DHT22;50345;51.136;16.886;2023-04-06T09:22:54;18.30;36.30
6956;DHT22;50345;51.136;16.886;2023-04-06T09:25:22;19.30;33.70
6956;DHT22;50345;51.136;16.886;2023-04-06T09:27:48;20.20;31.50
6956;DHT22;50345;51.136;16.886;2023-04-06T09:30:15;20.80;30.60
6956;DHT22;50345;51.136;16.886;2023-04-06T09:32:49;21.30;30.60
6956;DHT22;50345;51.136;16.886;2023-04-06T09:35:16;22.50;29.30
6956;DHT22;50345;51.136;16.886;2023-04-06T09:37:43;22.80;29.80
6956;DHT22;50345;51.136;16.886;2023-04-06T09:40:09;23.50;27.50
6956;DHT22;50345;51.136;16.886;2023-04-06T09:42:35;23.50;28.60
6956;DHT22;50345;51.136;16.886;2023-04-06T09:45:04;23.50;28.40
6956;DHT22;50345;51.136;16.886;2023-04-06T09:47:31;23.10;28.10
6956;DHT22;50345;51.136;16.886;2023-04-06T09:49:59;22.10;28.40
6956;DHT22;50345;51.136;16.886;2023-04-06T09:52:33;22.50;28.90
6956;DHT22;50345;51.136;16.886;2023-04-06T09:55:03;24.20;27.20
6956;DHT22;50345;51.136;16.886;2023-04-06T09:57:35;24.20;27.60
6956;DHT22;50345;51.136;16.886;2023-04-06T10:00:06;24.90;25.80
6956;DHT22;50345;51.136;16.886;2023-04-06T10:08:12;22.20;26.40
6956;DHT22;50345;51.136;16.886;2023-04-06T10:10:39;20.80;27.40
6956;DHT22;50345;51.136;16.886;2023-04-06T10:13:05;20.70;28.20
6956;DHT22;50345;51.136;16.886;2023-04-06T10:15:31;20.60;28.90
6956;DHT22;50345;51.136;16.886;2023-04-06T10:17:58;21.60;29.00
6956;DHT22;50345;51.136;16.886;2023-04-06T10:23:24;19.30;28.60
6956;DHT22;50345;51.136;16.886;2023-04-06T10:25:59;18.10;29.30
6956;DHT22;50345;51.136;16.886;2023-04-06T10:28:25;18.10;30.30
6956;DHT22;50345;51.136;16.886;2023-04-06T10:30:57;19.00;30.40
6956;DHT22;50345;51.136;16.886;2023-04-06T10:33:23;21.90;27.50
6956;DHT22;50345;51.136;16.886;2023-04-06T10:35:49;22.20;27.20
6956;DHT22;50345;51.136;16.886;2023-04-06T10:38:15;23.50;27.10
6956;DHT22;50345;51.136;16.886;2023-04-06T10:40:45;24.70;26.10
6956;DHT22;50345;51.136;16.886;2023-04-06T10:43:18;26.10;23.70
6956;DHT22;50345;51.136;16.886;2023-04-06T10:45:44;26.30;22.80
6956;DHT22;50345;51.136;16.886;2023-04-06T10:48:19;26.50;22.70
6956;DHT22;50345;51.136;16.886;2023-04-06T10:50:48;26.50;23.30
6956;DHT22;50345;51.136;16.886;2023-04-06T10:53:27;26.50;23.50
6956;DHT22;50345;51.136;16.886;2023-04-06T10:55:56;26.10;23.80
6956;DHT22;50345;51.136;16.886;2023-04-06T10:58:26;26.00;24.10
6956;DHT22;50345;51.136;16.886;2023-04-06T11:00:52;26.30;23.90
6956;DHT22;50345;51.136;16.886;2023-04-06T11:03:19;26.60;23.50
6956;DHT22;50345;51.136;16.886;2023-04-06T11:05:45;26.90;23.10
6956;DHT22;50345;51.136;16.886;2023-04-06T11:08:31;27.10;22.60
6956;DHT22;50345;51.136;16.886;2023-04-06T11:11:05;27.60;22.00
6956;DHT22;50345;51.136;16.886;2023-04-06T11:13:44;27.70;23.00
6956;DHT22;50345;51.136;16.886;2023-04-06T11:16:20;27.70;22.60
6956;DHT22;50345;51.136;16.886;2023-04-06T11:19:15;26.90;23.10
6956;DHT22;50345;51.136;16.886;2023-04-06T11:21:43;27.00;23.10
6956;DHT22;50345;51.136;16.886;2023-04-06T11:26:40;27.20;22.60
6956;DHT22;50345;51.136;16.886;2023-04-06T11:29:06;26.80;22.80
6956;DHT22;50345;51.136;16.886;2023-04-06T11:31:39;26.90;23.40
6956;DHT22;50345;51.136;16.886;2023-04-06T11:34:09;27.10;22.10
6956;DHT22;50345;51.136;16.886;2023-04-06T11:36:36;27.20;23.00
6956;DHT22;50345;51.136;16.886;2023-04-06T11:39:03;27.30;22.70
6956;DHT22;50345;51.136;16.886;2023-04-06T11:41:29;27.40;22.90
6956;DHT22;50345;51.136;16.886;2023-04-06T11:43:55;27.70;22.10
6956;DHT22;50345;51.136;16.886;2023-04-06T11:46:21;27.70;22.50
6956;DHT22;50345;51.136;16.886;2023-04-06T11:48:47;27.70;22.40
6956;DHT22;50345;51.136;16.886;2023-04-06T11:51:22;27.20;22.00
6956;DHT22;50345;51.136;16.886;2023-04-06T11:53:48;26.60;23.00
6956;DHT22;50345;51.136;16.886;2023-04-06T11:56:28;26.70;23.10
6956;DHT22;50345;51.136;16.886;2023-04-06T11:58:55;26.20;22.40
6956;DHT22;50345;51.136;16.886;2023-04-06T12:01:22;24.60;22.80
6956;DHT22;50345;51.136;16.886;2023-04-06T12:03:48;24.10;23.70
6956;DHT22;50345;51.136;16.886;2023-04-06T12:06:14;24.40;23.40
6956;DHT22;50345;51.136;16.886;2023-04-06T12:08:40;24.70;23.00
6956;DHT22;50345;51.136;16.886;2023-04-06T12:11:06;25.00;23.70
6956;DHT22;50345;51.136;16.886;2023-04-06T12:13:32;25.10;23.70
6956;DHT22;50345;51.136;16.886;2023-04-06T12:15:57;25.30;23.80
6956;DHT22;50345;51.136;16.886;2023-04-06T12:18:23;25.40;23.10
6956;DHT22;50345;51.136;16.886;2023-04-06T12:20:49;25.40;23.10
6956;DHT22;50345;51.136;16.886;2023-04-06T12:23:14;25.60;22.70
6956;DHT22;50345;51.136;16.886;2023-04-06T12:25:42;25.80;22.70
6956;DHT22;50345;51.136;16.886;2023-04-06T12:28:08;25.90;23.10
6956;DHT22;50345;51.136;16.886;2023-04-06T12:30:37;26.00;23.20
6956;DHT22;50345;51.136;16.886;2023-04-06T12:33:03;25.90;23.10
6956;DHT22;50345;51.136;16.886;2023-04-06T12:35:32;25.80;23.00
6956;DHT22;50345;51.136;16.886;2023-04-06T12:37:58;25.60;23.10
6956;DHT22;50345;51.136;16.886;2023-04-06T12:40:24;25.40;23.30
6956;DHT22;50345;51.136;16.886;2023-04-06T12:42:49;25.40;23.60
6956;DHT22;50345;51.136;16.886;2023-04-06T12:45:15;25.50;23.30
6956;DHT22;50345;51.136;16.886;2023-04-06T12:47:41;25.50;23.30
6956;DHT22;50345;51.136;16.886;2023-04-06T12:50:07;25.50;23.50
6956;DHT22;50345;51.136;16.886;2023-04-06T12:52:32;25.50;23.10
6956;DHT22;50345;51.136;16.886;2023-04-06T12:55:03;25.80;23.20
6956;DHT22;50345;51.136;16.886;2023-04-06T12:57:30;26.30;22.70
6956;DHT22;50345;51.136;16.886;2023-04-06T12:59:56;26.20;22.60
6956;DHT22;50345;51.136;16.886;2023-04-06T13:02:22;25.90;22.80
6956;DHT22;50345;51.136;16.886;2023-04-06T13:04:51;26.30;22.50
6956;DHT22;50345;51.136;16.886;2023-04-06T13:07:17;26.40;22.80
6956;DHT22;50345;51.136;16.886;2023-04-06T13:09:43;26.60;22.70
6956;DHT22;50345;51.136;16.886;2023-04-06T13:12:08;26.50;22.40
6956;DHT22;50345;51.136;16.886;2023-04-06T13:14:34;26.30;22.50
6956;DHT22;50345;51.136;16.886;2023-04-06T13:17:00;26.20;22.50
6956;DHT22;50345;51.136;16.886;2023-04-06T13:19:26;26.40;22.40
6956;DHT22;50345;51.136;16.886;2023-04-06T13:21:51;26.60;22.50
6956;DHT22;50345;51.136;16.886;2023-04-06T13:24:17;26.60;22.40
6956;DHT22;50345;51.136;16.886;2023-04-06T13:26:43;26.60;22.50
6956;DHT22;50345;51.136;16.886;2023-04-06T13:29:08;26.50;22.30
6956;DHT22;50345;51.136;16.886;2023-04-06T13:31:34;26.60;22.30
6956;DHT22;50345;51.136;16.886;2023-04-06T13:34:00;27.10;22.20
6956;DHT22;50345;51.136;16.886;2023-04-06T13:36:25;27.40;21.80
6956;DHT22;50345;51.136;16.886;2023-04-06T13:38:52;27.30;22.30
6956;DHT22;50345;51.136;16.886;2023-04-06T13:41:22;27.30;21.90
6956;DHT22;50345;51.136;16.886;2023-04-06T13:43:49;27.50;22.10
6956;DHT22;50345;51.136;16.886;2023-04-06T13:46:15;27.00;21.70
6956;DHT22;50345;51.136;16.886;2023-04-06T13:48:42;26.50;22.40
6956;DHT22;50345;51.136;16.886;2023-04-06T13:51:11;26.00;22.40
6956;DHT22;50345;51.136;16.886;2023-04-06T13:53:38;25.60;22.60
6956;DHT22;50345;51.136;16.886;2023-04-06T13:56:04;25.80;22.50
6956;DHT22;50345;51.136;16.886;2023-04-06T13:58:29;25.70;22.90
6956;DHT22;50345;51.136;16.886;2023-04-06T14:01:07;25.80;23.00
6956;DHT22;50345;51.136;16.886;2023-04-06T14:03:35;26.00;22.50
6956;DHT22;50345;51.136;16.886;2023-04-06T14:06:01;26.00;22.30
6956;DHT22;50345;51.136;16.886;2023-04-06T14:08:27;25.90;22.40
6956;DHT22;50345;51.136;16.886;2023-04-06T14:10:52;26.30;22.40
6956;DHT22;50345;51.136;16.886;2023-04-06T14:13:19;27.00;22.60
6956;DHT22;50345;51.136;16.886;2023-04-06T14:15:45;27.30;21.90
6956;DHT22;50345;51.136;16.886;2023-04-06T14:18:11;27.40;21.60
6956;DHT22;50345;51.136;16.886;2023-04-06T14:20:37;27.40;21.70
6956;DHT22;50345;51.136;16.886;2023-04-06T14:23:03;27.00;21.60
6956;DHT22;50345;51.136;16.886;2023-04-06T14:25:29;26.60;21.70
6956;DHT22;50345;51.136;16.886;2023-04-06T14:27:59;26.20;22.40
6956;DHT22;50345;51.136;16.886;2023-04-06T14:30:26;26.10;22.70
6956;DHT22;50345;51.136;16.886;2023-04-06T14:32:55;25.80;22.30
6956;DHT22;50345;51.136;16.886;2023-04-06T14:35:22;25.70;22.60
6956;DHT22;50345;51.136;16.886;2023-04-06T14:37:47;25.90;22.20
6956;DHT22;50345;51.136;16.886;2023-04-06T14:40:13;26.10;22.20
6956;DHT22;50345;51.136;16.886;2023-04-06T14:42:38;26.60;21.60
6956;DHT22;50345;51.136;16.886;2023-04-06T14:45:04;27.00;22.10
6956;DHT22;50345;51.136;16.886;2023-04-06T14:47:32;27.30;21.80
6956;DHT22;50345;51.136;16.886;2023-04-06T14:49:57;27.30;21.50
6956;DHT22;50345;51.136;16.886;2023-04-06T14:52:23;27.20;21.70
6956;DHT22;50345;51.136;16.886;2023-04-06T14:54:48;27.20;21.60
6956;DHT22;50345;51.136;16.886;2023-04-06T14:57:14;27.10;21.50
6956;DHT22;50345;51.136;16.886;2023-04-06T14:59:40;27.00;21.60
6956;DHT22;50345;51.136;16.886;2023-04-06T15:02:06;27.00;21.60
6956;DHT22;50345;51.136;16.886;2023-04-06T15:04:34;27.20;21.80
6956;DHT22;50345;51.136;16.886;2023-04-06T15:07:00;27.40;21.50
6956;DHT22;50345;51.136;16.886;2023-04-06T15:09:26;27.30;21.60
6956;DHT22;50345;51.136;16.886;2023-04-06T15:11:51;27.10;21.60
6956;DHT22;50345;51.136;16.886;2023-04-06T15:14:17;27.10;21.60
6956;DHT22;50345;51.136;16.886;2023-04-06T15:16:43;27.10;21.70
6956;DHT22;50345;51.136;16.886;2023-04-06T15:19:08;27.00;21.40
6956;DHT22;50345;51.136;16.886;2023-04-06T15:21:35;27.10;21.60
6956;DHT22;50345;51.136;16.886;2023-04-06T15:24:00;27.30;21.60
6956;DHT22;50345;51.136;16.886;2023-04-06T15:26:26;27.40;21.60
6956;DHT22;50345;51.136;16.886;2023-04-06T15:28:52;27.30;21.60
6956;DHT22;50345;51.136;16.886;2023-04-06T15:31:18;27.30;21.60
6956;DHT22;50345;51.136;16.886;2023-04-06T15:33:45;27.40;21.70
6956;DHT22;50345;51.136;16.886;2023-04-06T15:36:26;27.40;21.50
6956;DHT22;50345;51.136;16.886;2023-04-06T15:38:54;27.00;21.60
6956;DHT22;50345;51.136;16.886;2023-04-06T15:41:21;26.70;21.90
6956;DHT22;50345;51.136;16.886;2023-04-06T15:43:47;26.30;21.90